Terminal Aerodrome Forecast
Issued by NWS

Home | Current Version | Previous Version | Text Only | Print | Product List | Glossary On
Versions: 1 2 3 4 5 6 7 8 9 10 11 12 13 14 15 16 17 18 19 20 21 22 23 24 25 26
000
FTPQ31 PGUM 191721
TAFGUM
TAF

TAF
PKWA 191721Z 1918/2018 09011KT P6SM VCTS SCT020CB SCT050 BKN100
      TEMPO 1918/1922 VRB10G20KT 4SM +SHRA SCT010 BKN025 OVC050
     FM192200 09011KT P6SM VCSH SCT020 SCT050 BKN100=

USA.gov is the U.S. government's official web portal to all federal, state and local government web resources and services.